sensor_id;sensor_type;location;lat;lon;timestamp;P1;durP1;ratioP1;P2;durP2;ratioP2
35056;SDS011;21241;51.828;19.574;2024-01-10T00:01:35;83.70;;;71.10;;
35056;SDS011;21241;51.828;19.574;2024-01-10T00:04:03;84.10;;;71.60;;
35056;SDS011;21241;51.828;19.574;2024-01-10T00:06:30;87.40;;;74.60;;
35056;SDS011;21241;51.828;19.574;2024-01-10T00:08:59;94.30;;;77.90;;
35056;SDS011;21241;51.828;19.574;2024-01-10T00:11:26;89.20;;;78.30;;
35056;SDS011;21241;51.828;19.574;2024-01-10T00:13:54;93.50;;;78.10;;
35056;SDS011;21241;51.828;19.574;2024-01-10T00:16:27;91.70;;;76.50;;
35056;SDS011;21241;51.828;19.574;2024-01-10T00:18:55;90.00;;;76.20;;
35056;SDS011;21241;51.828;19.574;2024-01-10T00:21:23;83.90;;;75.00;;
35056;SDS011;21241;51.828;19.574;2024-01-10T00:23:50;88.00;;;74.80;;
35056;SDS011;21241;51.828;19.574;2024-01-10T00:26:18;84.80;;;69.70;;
35056;SDS011;21241;51.828;19.574;2024-01-10T00:28:46;82.30;;;70.10;;
35056;SDS011;21241;51.828;19.574;2024-01-10T00:31:14;79.40;;;69.20;;
35056;SDS011;21241;51.828;19.574;2024-01-10T00:33:42;82.20;;;70.00;;
35056;SDS011;21241;51.828;19.574;2024-01-10T00:36:10;75.80;;;65.70;;
35056;SDS011;21241;51.828;19.574;2024-01-10T00:38:38;77.70;;;67.80;;
35056;SDS011;21241;51.828;19.574;2024-01-10T00:41:05;77.40;;;66.80;;
35056;SDS011;21241;51.828;19.574;2024-01-10T00:43:33;77.40;;;66.70;;
35056;SDS011;21241;51.828;19.574;2024-01-10T00:46:01;74.50;;;64.80;;
35056;SDS011;21241;51.828;19.574;2024-01-10T00:48:30;73.60;;;63.60;;
35056;SDS011;21241;51.828;19.574;2024-01-10T00:50:58;77.10;;;62.40;;
35056;SDS011;21241;51.828;19.574;2024-01-10T00:53:26;73.10;;;60.80;;
35056;SDS011;21241;51.828;19.574;2024-01-10T00:55:54;68.20;;;57.70;;
35056;SDS011;21241;51.828;19.574;2024-01-10T00:58:22;62.40;;;53.20;;
35056;SDS011;21241;51.828;19.574;2024-01-10T01:00:49;56.80;;;48.90;;
35056;SDS011;21241;51.828;19.574;2024-01-10T01:03:17;52.10;;;41.40;;
35056;SDS011;21241;51.828;19.574;2024-01-10T01:05:46;47.90;;;40.10;;
35056;SDS011;21241;51.828;19.574;2024-01-10T01:08:14;46.10;;;38.20;;
35056;SDS011;21241;51.828;19.574;2024-01-10T01:10:42;48.20;;;37.70;;
35056;SDS011;21241;51.828;19.574;2024-01-10T01:13:10;43.90;;;35.90;;
35056;SDS011;21241;51.828;19.574;2024-01-10T01:15:38;41.60;;;33.60;;
35056;SDS011;21241;51.828;19.574;2024-01-10T01:18:05;39.20;;;32.90;;
35056;SDS011;21241;51.828;19.574;2024-01-10T01:20:33;41.30;;;35.40;;
35056;SDS011;21241;51.828;19.574;2024-01-10T01:23:01;42.90;;;35.90;;
35056;SDS011;21241;51.828;19.574;2024-01-10T01:25:30;41.10;;;35.60;;
35056;SDS011;21241;51.828;19.574;2024-01-10T01:27:57;45.80;;;38.40;;
35056;SDS011;21241;51.828;19.574;2024-01-10T01:30:25;49.10;;;41.60;;
35056;SDS011;21241;51.828;19.574;2024-01-10T01:32:53;44.80;;;38.50;;
35056;SDS011;21241;51.828;19.574;2024-01-10T01:35:21;46.90;;;39.80;;
35056;SDS011;21241;51.828;19.574;2024-01-10T01:37:50;45.90;;;40.30;;
35056;SDS011;21241;51.828;19.574;2024-01-10T01:40:19;47.10;;;41.70;;
35056;SDS011;21241;51.828;19.574;2024-01-10T01:42:47;47.40;;;39.80;;
35056;SDS011;21241;51.828;19.574;2024-01-10T01:45:15;45.00;;;40.20;;
35056;SDS011;21241;51.828;19.574;2024-01-10T01:47:43;47.00;;;39.80;;
35056;SDS011;21241;51.828;19.574;2024-01-10T01:50:12;46.00;;;39.50;;
35056;SDS011;21241;51.828;19.574;2024-01-10T01:52:40;41.20;;;36.70;;
35056;SDS011;21241;51.828;19.574;2024-01-10T01:55:08;43.60;;;36.50;;
35056;SDS011;21241;51.828;19.574;2024-01-10T01:57:37;38.80;;;33.50;;
35056;SDS011;21241;51.828;19.574;2024-01-10T02:00:05;42.40;;;35.30;;
35056;SDS011;21241;51.828;19.574;2024-01-10T02:02:34;39.50;;;33.10;;
35056;SDS011;21241;51.828;19.574;2024-01-10T02:05:03;39.50;;;33.30;;
35056;SDS011;21241;51.828;19.574;2024-01-10T02:07:31;38.00;;;33.90;;
35056;SDS011;21241;51.828;19.574;2024-01-10T02:09:59;39.10;;;34.00;;
35056;SDS011;21241;51.828;19.574;2024-01-10T02:12:27;38.50;;;32.10;;
35056;SDS011;21241;51.828;19.574;2024-01-10T02:14:55;35.50;;;31.50;;
35056;SDS011;21241;51.828;19.574;2024-01-10T02:17:23;36.40;;;32.00;;
35056;SDS011;21241;51.828;19.574;2024-01-10T02:20:07;39.50;;;33.10;;
35056;SDS011;21241;51.828;19.574;2024-01-10T02:22:45;40.20;;;33.50;;
35056;SDS011;21241;51.828;19.574;2024-01-10T02:25:14;35.50;;;31.20;;
35056;SDS011;21241;51.828;19.574;2024-01-10T02:27:42;37.00;;;31.00;;
35056;SDS011;21241;51.828;19.574;2024-01-10T02:30:10;35.00;;;29.10;;
35056;SDS011;21241;51.828;19.574;2024-01-10T02:32:38;35.70;;;30.00;;
35056;SDS011;21241;51.828;19.574;2024-01-10T02:35:07;34.50;;;29.50;;
35056;SDS011;21241;51.828;19.574;2024-01-10T02:37:35;34.10;;;30.00;;
35056;SDS011;21241;51.828;19.574;2024-01-10T02:40:04;32.50;;;27.60;;
35056;SDS011;21241;51.828;19.574;2024-01-10T02:42:32;30.40;;;27.10;;
35056;SDS011;21241;51.828;19.574;2024-01-10T02:45:00;33.40;;;29.30;;
35056;SDS011;21241;51.828;19.574;2024-01-10T02:47:28;31.30;;;27.70;;
35056;SDS011;21241;51.828;19.574;2024-01-10T02:49:57;32.40;;;29.00;;
35056;SDS011;21241;51.828;19.574;2024-01-10T02:52:24;36.40;;;30.10;;
35056;SDS011;21241;51.828;19.574;2024-01-10T02:54:52;33.80;;;29.90;;
35056;SDS011;21241;51.828;19.574;2024-01-10T02:57:21;36.90;;;31.10;;
35056;SDS011;21241;51.828;19.574;2024-01-10T02:59:48;37.40;;;32.70;;
35056;SDS011;21241;51.828;19.574;2024-01-10T03:02:16;37.70;;;32.60;;
35056;SDS011;21241;51.828;19.574;2024-01-10T03:04:44;36.20;;;32.30;;
35056;SDS011;21241;51.828;19.574;2024-01-10T03:07:13;35.80;;;30.60;;
35056;SDS011;21241;51.828;19.574;2024-01-10T03:09:41;33.70;;;27.50;;
35056;SDS011;21241;51.828;19.574;2024-01-10T03:12:10;31.30;;;26.30;;
35056;SDS011;21241;51.828;19.574;2024-01-10T03:14:38;28.20;;;24.90;;
35056;SDS011;21241;51.828;19.574;2024-01-10T03:17:06;28.50;;;24.40;;
35056;SDS011;21241;51.828;19.574;2024-01-10T03:19:34;26.50;;;23.60;;
35056;SDS011;21241;51.828;19.574;2024-01-10T03:22:04;28.30;;;25.30;;
35056;SDS011;21241;51.828;19.574;2024-01-10T03:24:32;27.70;;;23.70;;
35056;SDS011;21241;51.828;19.574;2024-01-10T03:27:00;29.70;;;24.90;;
35056;SDS011;21241;51.828;19.574;2024-01-10T03:29:28;31.30;;;25.10;;
35056;SDS011;21241;51.828;19.574;2024-01-10T03:31:56;29.50;;;25.70;;
35056;SDS011;21241;51.828;19.574;2024-01-10T03:34:23;30.30;;;25.50;;
35056;SDS011;21241;51.828;19.574;2024-01-10T03:36:51;34.90;;;27.10;;
35056;SDS011;21241;51.828;19.574;2024-01-10T03:39:19;30.00;;;25.00;;
35056;SDS011;21241;51.828;19.574;2024-01-10T03:41:48;26.70;;;23.00;;
35056;SDS011;21241;51.828;19.574;2024-01-10T03:44:15;25.10;;;22.20;;
35056;SDS011;21241;51.828;19.574;2024-01-10T03:46:43;26.70;;;22.30;;
35056;SDS011;21241;51.828;19.574;2024-01-10T03:49:11;25.40;;;21.40;;
35056;SDS011;21241;51.828;19.574;2024-01-10T03:51:39;26.60;;;21.60;;
35056;SDS011;21241;51.828;19.574;2024-01-10T03:54:08;22.30;;;19.80;;
35056;SDS011;21241;51.828;19.574;2024-01-10T03:56:35;22.50;;;19.50;;
35056;SDS011;21241;51.828;19.574;2024-01-10T03:59:03;23.50;;;20.20;;
35056;SDS011;21241;51.828;19.574;2024-01-10T04:01:31;23.10;;;20.20;;
35056;SDS011;21241;51.828;19.574;2024-01-10T04:03:59;24.10;;;20.70;;
35056;SDS011;21241;51.828;19.574;2024-01-10T04:06:27;25.00;;;22.00;;
35056;SDS011;21241;51.828;19.574;2024-01-10T04:08:56;28.20;;;23.20;;
35056;SDS011;21241;51.828;19.574;2024-01-10T04:11:24;26.30;;;23.40;;
35056;SDS011;21241;51.828;19.574;2024-01-10T04:13:52;28.80;;;23.30;;
35056;SDS011;21241;51.828;19.574;2024-01-10T04:16:19;27.90;;;24.90;;
35056;SDS011;21241;51.828;19.574;2024-01-10T04:18:47;30.50;;;26.00;;
35056;SDS011;21241;51.828;19.574;2024-01-10T04:21:16;31.50;;;26.50;;
35056;SDS011;21241;51.828;19.574;2024-01-10T04:23:44;31.50;;;26.40;;
35056;SDS011;21241;51.828;19.574;2024-01-10T04:26:11;33.60;;;27.60;;
35056;SDS011;21241;51.828;19.574;2024-01-10T04:28:39;32.50;;;26.80;;
35056;SDS011;21241;51.828;19.574;2024-01-10T04:31:09;38.40;;;31.20;;
35056;SDS011;21241;51.828;19.574;2024-01-10T04:33:36;35.40;;;29.30;;
35056;SDS011;21241;51.828;19.574;2024-01-10T04:36:04;33.20;;;27.40;;
35056;SDS011;21241;51.828;19.574;2024-01-10T04:38:33;33.30;;;27.60;;
35056;SDS011;21241;51.828;19.574;2024-01-10T04:41:01;32.40;;;28.40;;
35056;SDS011;21241;51.828;19.574;2024-01-10T04:43:29;32.10;;;26.30;;
35056;SDS011;21241;51.828;19.574;2024-01-10T04:45:57;34.00;;;27.80;;
35056;SDS011;21241;51.828;19.574;2024-01-10T04:48:25;33.10;;;25.60;;
35056;SDS011;21241;51.828;19.574;2024-01-10T04:50:53;28.90;;;23.90;;
35056;SDS011;21241;51.828;19.574;2024-01-10T04:53:21;28.00;;;23.30;;
35056;SDS011;21241;51.828;19.574;2024-01-10T04:55:50;26.70;;;22.30;;
35056;SDS011;21241;51.828;19.574;2024-01-10T04:58:18;27.30;;;22.30;;
35056;SDS011;21241;51.828;19.574;2024-01-10T05:00:46;29.60;;;25.00;;
35056;SDS011;21241;51.828;19.574;2024-01-10T05:03:15;32.20;;;24.90;;
35056;SDS011;21241;51.828;19.574;2024-01-10T05:05:43;29.00;;;24.00;;
35056;SDS011;21241;51.828;19.574;2024-01-10T05:08:11;30.50;;;25.30;;
35056;SDS011;21241;51.828;19.574;2024-01-10T05:10:39;25.60;;;22.80;;
35056;SDS011;21241;51.828;19.574;2024-01-10T05:13:07;29.30;;;24.80;;
35056;SDS011;21241;51.828;19.574;2024-01-10T05:15:35;30.70;;;24.80;;
35056;SDS011;21241;51.828;19.574;2024-01-10T05:18:03;27.80;;;23.90;;
35056;SDS011;21241;51.828;19.574;2024-01-10T05:20:31;29.40;;;24.50;;
35056;SDS011;21241;51.828;19.574;2024-01-10T05:22:59;30.60;;;25.10;;
35056;SDS011;21241;51.828;19.574;2024-01-10T05:25:29;29.60;;;23.90;;
35056;SDS011;21241;51.828;19.574;2024-01-10T05:27:57;27.50;;;24.40;;
35056;SDS011;21241;51.828;19.574;2024-01-10T05:30:25;30.30;;;23.90;;
35056;SDS011;21241;51.828;19.574;2024-01-10T05:32:55;27.70;;;23.40;;
35056;SDS011;21241;51.828;19.574;2024-01-10T05:35:24;26.40;;;21.60;;
35056;SDS011;21241;51.828;19.574;2024-01-10T05:37:53;26.10;;;20.60;;
35056;SDS011;21241;51.828;19.574;2024-01-10T05:40:22;29.50;;;23.20;;
35056;SDS011;21241;51.828;19.574;2024-01-10T05:42:50;30.00;;;23.50;;
35056;SDS011;21241;51.828;19.574;2024-01-10T05:45:18;32.90;;;27.30;;
35056;SDS011;21241;51.828;19.574;2024-01-10T05:47:46;33.10;;;28.90;;
35056;SDS011;21241;51.828;19.574;2024-01-10T05:50:15;37.90;;;33.40;;
35056;SDS011;21241;51.828;19.574;2024-01-10T05:52:43;38.20;;;34.10;;
35056;SDS011;21241;51.828;19.574;2024-01-10T05:55:13;37.60;;;33.50;;
35056;SDS011;21241;51.828;19.574;2024-01-10T05:57:41;37.30;;;33.00;;
35056;SDS011;21241;51.828;19.574;2024-01-10T06:00:10;31.30;;;28.00;;
35056;SDS011;21241;51.828;19.574;2024-01-10T06:02:38;29.70;;;26.60;;
35056;SDS011;21241;51.828;19.574;2024-01-10T06:05:07;62.00;;;54.20;;
35056;SDS011;21241;51.828;19.574;2024-01-10T06:07:37;37.00;;;33.00;;
35056;SDS011;21241;51.828;19.574;2024-01-10T06:10:06;32.60;;;28.00;;
35056;SDS011;21241;51.828;19.574;2024-01-10T06:12:34;25.30;;;22.60;;
35056;SDS011;21241;51.828;19.574;2024-01-10T06:15:02;25.30;;;22.70;;
35056;SDS011;21241;51.828;19.574;2024-01-10T06:17:30;26.40;;;22.40;;
35056;SDS011;21241;51.828;19.574;2024-01-10T06:19:59;25.00;;;20.00;;
35056;SDS011;21241;51.828;19.574;2024-01-10T06:22:28;25.50;;;20.60;;
35056;SDS011;21241;51.828;19.574;2024-01-10T06:24:58;24.10;;;19.70;;
35056;SDS011;21241;51.828;19.574;2024-01-10T06:27:26;26.00;;;19.50;;
35056;SDS011;21241;51.828;19.574;2024-01-10T06:29:53;22.80;;;19.70;;
35056;SDS011;21241;51.828;19.574;2024-01-10T06:32:21;22.20;;;18.80;;
35056;SDS011;21241;51.828;19.574;2024-01-10T06:34:49;22.90;;;19.20;;
35056;SDS011;21241;51.828;19.574;2024-01-10T06:37:17;22.70;;;18.40;;
35056;SDS011;21241;51.828;19.574;2024-01-10T06:39:45;23.00;;;18.70;;
35056;SDS011;21241;51.828;19.574;2024-01-10T06:42:13;19.60;;;16.40;;
35056;SDS011;21241;51.828;19.574;2024-01-10T06:44:40;20.80;;;18.00;;
35056;SDS011;21241;51.828;19.574;2024-01-10T06:47:08;22.40;;;18.80;;
35056;SDS011;21241;51.828;19.574;2024-01-10T06:49:37;22.00;;;18.20;;
35056;SDS011;21241;51.828;19.574;2024-01-10T06:52:06;22.80;;;18.40;;
35056;SDS011;21241;51.828;19.574;2024-01-10T06:54:35;23.80;;;19.90;;
35056;SDS011;21241;51.828;19.574;2024-01-10T06:57:03;23.00;;;19.60;;
35056;SDS011;21241;51.828;19.574;2024-01-10T06:59:31;23.50;;;20.10;;
35056;SDS011;21241;51.828;19.574;2024-01-10T07:01:59;26.80;;;20.90;;
35056;SDS011;21241;51.828;19.574;2024-01-10T07:04:28;24.00;;;21.50;;
35056;SDS011;21241;51.828;19.574;2024-01-10T07:06:56;24.20;;;20.40;;
35056;SDS011;21241;51.828;19.574;2024-01-10T07:09:24;24.50;;;20.20;;
35056;SDS011;21241;51.828;19.574;2024-01-10T07:11:52;23.20;;;20.30;;
35056;SDS011;21241;51.828;19.574;2024-01-10T07:14:20;22.10;;;18.80;;
35056;SDS011;21241;51.828;19.574;2024-01-10T07:16:48;24.30;;;19.40;;
35056;SDS011;21241;51.828;19.574;2024-01-10T07:19:16;23.90;;;18.80;;
35056;SDS011;21241;51.828;19.574;2024-01-10T07:21:44;26.70;;;21.50;;
35056;SDS011;21241;51.828;19.574;2024-01-10T07:24:12;22.20;;;19.40;;
35056;SDS011;21241;51.828;19.574;2024-01-10T07:26:40;20.50;;;16.70;;
35056;SDS011;21241;51.828;19.574;2024-01-10T07:29:08;24.80;;;19.50;;
35056;SDS011;21241;51.828;19.574;2024-01-10T07:31:37;24.50;;;19.90;;
35056;SDS011;21241;51.828;19.574;2024-01-10T07:34:05;22.20;;;18.30;;
35056;SDS011;21241;51.828;19.574;2024-01-10T07:36:33;21.70;;;16.80;;
35056;SDS011;21241;51.828;19.574;2024-01-10T07:39:10;21.40;;;17.30;;
35056;SDS011;21241;51.828;19.574;2024-01-10T07:41:38;20.20;;;17.40;;
35056;SDS011;21241;51.828;19.574;2024-01-10T07:44:06;19.30;;;16.20;;
35056;SDS011;21241;51.828;19.574;2024-01-10T07:46:35;19.60;;;16.30;;
35056;SDS011;21241;51.828;19.574;2024-01-10T07:49:05;18.60;;;15.80;;
35056;SDS011;21241;51.828;19.574;2024-01-10T07:51:33;19.80;;;15.90;;
35056;SDS011;21241;51.828;19.574;2024-01-10T07:54:01;20.00;;;17.00;;
35056;SDS011;21241;51.828;19.574;2024-01-10T07:56:30;19.20;;;17.00;;
35056;SDS011;21241;51.828;19.574;2024-01-10T07:58:58;20.20;;;17.20;;
35056;SDS011;21241;51.828;19.574;2024-01-10T08:01:25;19.70;;;16.20;;
35056;SDS011;21241;51.828;19.574;2024-01-10T08:03:53;19.30;;;16.70;;
35056;SDS011;21241;51.828;19.574;2024-01-10T08:06:21;19.70;;;17.60;;
35056;SDS011;21241;51.828;19.574;2024-01-10T08:08:59;20.00;;;17.00;;
35056;SDS011;21241;51.828;19.574;2024-01-10T08:11:46;20.40;;;17.60;;
35056;SDS011;21241;51.828;19.574;2024-01-10T08:14:14;21.80;;;18.90;;
35056;SDS011;21241;51.828;19.574;2024-01-10T08:16:43;21.00;;;18.40;;
35056;SDS011;21241;51.828;19.574;2024-01-10T08:19:15;21.80;;;19.00;;
35056;SDS011;21241;51.828;19.574;2024-01-10T08:21:43;24.10;;;19.60;;
35056;SDS011;21241;51.828;19.574;2024-01-10T08:24:11;22.80;;;19.40;;
35056;SDS011;21241;51.828;19.574;2024-01-10T08:26:39;23.20;;;19.90;;
35056;SDS011;21241;51.828;19.574;2024-01-10T08:29:06;23.80;;;19.90;;
35056;SDS011;21241;51.828;19.574;2024-01-10T08:31:34;22.70;;;20.20;;
35056;SDS011;21241;51.828;19.574;2024-01-10T08:34:02;24.50;;;19.90;;
35056;SDS011;21241;51.828;19.574;2024-01-10T08:36:30;22.90;;;20.50;;
35056;SDS011;21241;51.828;19.574;2024-01-10T08:38:58;20.60;;;18.00;;
35056;SDS011;21241;51.828;19.574;2024-01-10T08:41:26;21.80;;;19.40;;
35056;SDS011;21241;51.828;19.574;2024-01-10T08:43:53;22.00;;;19.70;;
35056;SDS011;21241;51.828;19.574;2024-01-10T08:46:21;23.40;;;20.20;;
35056;SDS011;21241;51.828;19.574;2024-01-10T08:48:49;21.10;;;18.30;;
35056;SDS011;21241;51.828;19.574;2024-01-10T08:51:17;22.60;;;19.20;;
35056;SDS011;21241;51.828;19.574;2024-01-10T08:53:45;20.50;;;18.40;;
35056;SDS011;21241;51.828;19.574;2024-01-10T08:56:12;18.80;;;16.70;;
35056;SDS011;21241;51.828;19.574;2024-01-10T08:58:43;21.40;;;17.90;;
35056;SDS011;21241;51.828;19.574;2024-01-10T09:01:10;22.00;;;18.20;;
35056;SDS011;21241;51.828;19.574;2024-01-10T09:03:38;20.70;;;17.00;;
35056;SDS011;21241;51.828;19.574;2024-01-10T09:06:07;18.70;;;16.50;;
35056;SDS011;21241;51.828;19.574;2024-01-10T09:08:39;20.40;;;17.80;;
35056;SDS011;21241;51.828;19.574;2024-01-10T09:11:07;20.90;;;18.50;;
35056;SDS011;21241;51.828;19.574;2024-01-10T09:13:35;19.80;;;17.70;;
35056;SDS011;21241;51.828;19.574;2024-01-10T09:16:05;22.50;;;19.00;;
35056;SDS011;21241;51.828;19.574;2024-01-10T09:18:33;21.10;;;18.40;;
35056;SDS011;21241;51.828;19.574;2024-01-10T09:21:01;20.70;;;18.30;;
35056;SDS011;21241;51.828;19.574;2024-01-10T09:23:29;21.70;;;19.40;;
35056;SDS011;21241;51.828;19.574;2024-01-10T09:25:57;20.40;;;18.20;;
35056;SDS011;21241;51.828;19.574;2024-01-10T09:28:25;19.30;;;16.90;;
35056;SDS011;21241;51.828;19.574;2024-01-10T09:30:53;19.10;;;16.40;;
35056;SDS011;21241;51.828;19.574;2024-01-10T09:33:22;18.40;;;16.50;;
35056;SDS011;21241;51.828;19.574;2024-01-10T09:35:50;21.90;;;19.00;;
35056;SDS011;21241;51.828;19.574;2024-01-10T09:38:18;20.50;;;18.40;;
35056;SDS011;21241;51.828;19.574;2024-01-10T09:40:46;20.80;;;18.70;;
35056;SDS011;21241;51.828;19.574;2024-01-10T09:43:13;20.30;;;17.20;;
35056;SDS011;21241;51.828;19.574;2024-01-10T09:45:43;21.10;;;18.10;;
35056;SDS011;21241;51.828;19.574;2024-01-10T09:48:14;18.20;;;15.80;;
35056;SDS011;21241;51.828;19.574;2024-01-10T09:50:43;18.20;;;15.40;;
35056;SDS011;21241;51.828;19.574;2024-01-10T09:53:13;18.50;;;15.20;;
35056;SDS011;21241;51.828;19.574;2024-01-10T09:55:45;18.40;;;15.50;;
35056;SDS011;21241;51.828;19.574;2024-01-10T09:58:13;18.90;;;16.90;;
35056;SDS011;21241;51.828;19.574;2024-01-10T10:00:41;19.30;;;16.60;;
35056;SDS011;21241;51.828;19.574;2024-01-10T10:03:09;20.30;;;18.10;;
35056;SDS011;21241;51.828;19.574;2024-01-10T10:05:40;19.80;;;17.80;;
35056;SDS011;21241;51.828;19.574;2024-01-10T10:08:11;21.60;;;17.80;;
35056;SDS011;21241;51.828;19.574;2024-01-10T10:10:42;22.70;;;20.20;;
35056;SDS011;21241;51.828;19.574;2024-01-10T10:13:23;24.50;;;21.10;;
35056;SDS011;21241;51.828;19.574;2024-01-10T10:15:59;25.20;;;21.60;;
35056;SDS011;21241;51.828;19.574;2024-01-10T10:18:29;25.00;;;20.50;;
35056;SDS011;21241;51.828;19.574;2024-01-10T10:23:37;25.70;;;23.00;;
35056;SDS011;21241;51.828;19.574;2024-01-10T10:26:15;27.40;;;23.00;;
35056;SDS011;21241;51.828;19.574;2024-01-10T10:28:52;24.70;;;20.80;;
35056;SDS011;21241;51.828;19.574;2024-01-10T10:31:20;23.20;;;20.80;;
35056;SDS011;21241;51.828;19.574;2024-01-10T10:33:48;23.10;;;20.10;;
35056;SDS011;21241;51.828;19.574;2024-01-10T10:36:19;23.30;;;20.10;;
35056;SDS011;21241;51.828;19.574;2024-01-10T10:38:48;22.60;;;19.10;;
35056;SDS011;21241;51.828;19.574;2024-01-10T10:41:16;27.60;;;22.50;;
35056;SDS011;21241;51.828;19.574;2024-01-10T10:43:46;27.00;;;23.00;;
35056;SDS011;21241;51.828;19.574;2024-01-10T10:46:15;26.80;;;22.10;;
35056;SDS011;21241;51.828;19.574;2024-01-10T10:48:43;24.00;;;21.10;;
35056;SDS011;21241;51.828;19.574;2024-01-10T10:51:17;26.40;;;23.30;;
35056;SDS011;21241;51.828;19.574;2024-01-10T10:53:47;27.00;;;22.40;;
35056;SDS011;21241;51.828;19.574;2024-01-10T10:56:15;29.40;;;25.10;;
35056;SDS011;21241;51.828;19.574;2024-01-10T10:58:44;28.00;;;24.40;;
35056;SDS011;21241;51.828;19.574;2024-01-10T11:01:12;29.60;;;25.40;;
35056;SDS011;21241;51.828;19.574;2024-01-10T11:03:41;28.40;;;24.40;;
35056;SDS011;21241;51.828;19.574;2024-01-10T11:06:12;27.60;;;24.60;;
35056;SDS011;21241;51.828;19.574;2024-01-10T11:08:49;28.20;;;25.20;;
35056;SDS011;21241;51.828;19.574;2024-01-10T11:16:55;29.20;;;25.70;;
35056;SDS011;21241;51.828;19.574;2024-01-10T11:19:48;27.20;;;23.10;;
35056;SDS011;21241;51.828;19.574;2024-01-10T11:25:35;28.90;;;25.40;;
35056;SDS011;21241;51.828;19.574;2024-01-10T11:28:04;27.00;;;23.10;;
35056;SDS011;21241;51.828;19.574;2024-01-10T11:30:35;25.20;;;22.30;;
35056;SDS011;21241;51.828;19.574;2024-01-10T11:33:23;24.90;;;22.20;;
35056;SDS011;21241;51.828;19.574;2024-01-10T11:38:49;27.20;;;24.10;;
35056;SDS011;21241;51.828;19.574;2024-01-10T11:41:24;26.00;;;23.20;;
35056;SDS011;21241;51.828;19.574;2024-01-10T11:46:42;29.20;;;24.20;;
35056;SDS011;21241;51.828;19.574;2024-01-10T11:49:11;33.70;;;29.70;;
35056;SDS011;21241;51.828;19.574;2024-01-10T11:51:41;27.00;;;24.10;;
35056;SDS011;21241;51.828;19.574;2024-01-10T11:59:46;30.00;;;26.00;;
35056;SDS011;21241;51.828;19.574;2024-01-10T12:02:15;29.10;;;25.80;;
35056;SDS011;21241;51.828;19.574;2024-01-10T12:04:43;33.30;;;26.70;;
35056;SDS011;21241;51.828;19.574;2024-01-10T12:07:16;32.10;;;27.70;;
35056;SDS011;21241;51.828;19.574;2024-01-10T12:09:45;28.80;;;25.40;;
35056;SDS011;21241;51.828;19.574;2024-01-10T12:12:13;25.60;;;22.40;;
35056;SDS011;21241;51.828;19.574;2024-01-10T12:14:42;23.70;;;21.20;;
35056;SDS011;21241;51.828;19.574;2024-01-10T12:17:16;27.30;;;23.20;;
35056;SDS011;21241;51.828;19.574;2024-01-10T12:19:46;23.40;;;19.90;;
35056;SDS011;21241;51.828;19.574;2024-01-10T12:22:16;22.30;;;19.90;;
35056;SDS011;21241;51.828;19.574;2024-01-10T12:24:47;19.70;;;17.60;;
35056;SDS011;21241;51.828;19.574;2024-01-10T12:27:17;20.20;;;18.10;;
35056;SDS011;21241;51.828;19.574;2024-01-10T12:29:50;25.90;;;23.10;;
35056;SDS011;21241;51.828;19.574;2024-01-10T12:32:20;22.50;;;20.30;;
35056;SDS011;21241;51.828;19.574;2024-01-10T12:34:54;24.90;;;22.30;;
35056;SDS011;21241;51.828;19.574;2024-01-10T12:37:27;21.40;;;19.20;;
35056;SDS011;21241;51.828;19.574;2024-01-10T12:39:55;19.30;;;17.10;;
35056;SDS011;21241;51.828;19.574;2024-01-10T12:42:24;22.00;;;19.60;;
35056;SDS011;21241;51.828;19.574;2024-01-10T12:44:52;21.80;;;19.10;;
35056;SDS011;21241;51.828;19.574;2024-01-10T12:47:21;22.50;;;19.70;;
35056;SDS011;21241;51.828;19.574;2024-01-10T12:49:50;25.40;;;22.70;;
35056;SDS011;21241;51.828;19.574;2024-01-10T12:52:18;21.50;;;19.00;;
35056;SDS011;21241;51.828;19.574;2024-01-10T12:54:51;31.70;;;28.60;;
35056;SDS011;21241;51.828;19.574;2024-01-10T12:57:20;31.80;;;28.80;;
35056;SDS011;21241;51.828;19.574;2024-01-10T12:59:48;22.70;;;18.90;;
35056;SDS011;21241;51.828;19.574;2024-01-10T13:02:16;20.20;;;18.00;;
35056;SDS011;21241;51.828;19.574;2024-01-10T13:04:47;20.50;;;18.20;;
35056;SDS011;21241;51.828;19.574;2024-01-10T13:07:15;21.70;;;19.40;;
35056;SDS011;21241;51.828;19.574;2024-01-10T13:09:43;21.80;;;19.60;;
35056;SDS011;21241;51.828;19.574;2024-01-10T13:12:11;23.00;;;18.40;;
35056;SDS011;21241;51.828;19.574;2024-01-10T13:14:39;20.50;;;18.30;;
35056;SDS011;21241;51.828;19.574;2024-01-10T13:17:07;21.70;;;18.30;;
35056;SDS011;21241;51.828;19.574;2024-01-10T13:19:36;24.50;;;21.80;;
35056;SDS011;21241;51.828;19.574;2024-01-10T13:22:04;23.90;;;20.80;;
35056;SDS011;21241;51.828;19.574;2024-01-10T13:24:35;24.60;;;20.80;;
35056;SDS011;21241;51.828;19.574;2024-01-10T13:27:03;23.20;;;19.90;;
35056;SDS011;21241;51.828;19.574;2024-01-10T13:29:31;23.40;;;20.00;;
35056;SDS011;21241;51.828;19.574;2024-01-10T13:31:59;27.70;;;22.50;;
35056;SDS011;21241;51.828;19.574;2024-01-10T13:34:27;28.50;;;23.70;;
35056;SDS011;21241;51.828;19.574;2024-01-10T13:36:55;30.70;;;21.70;;
35056;SDS011;21241;51.828;19.574;2024-01-10T13:39:23;24.20;;;21.60;;
35056;SDS011;21241;51.828;19.574;2024-01-10T13:41:51;24.30;;;21.90;;
35056;SDS011;21241;51.828;19.574;2024-01-10T13:44:19;26.70;;;23.70;;
35056;SDS011;21241;51.828;19.574;2024-01-10T13:46:48;25.30;;;22.60;;
35056;SDS011;21241;51.828;19.574;2024-01-10T13:49:18;30.90;;;27.60;;
35056;SDS011;21241;51.828;19.574;2024-01-10T13:51:46;28.10;;;25.00;;
35056;SDS011;21241;51.828;19.574;2024-01-10T13:54:13;38.80;;;34.90;;
35056;SDS011;21241;51.828;19.574;2024-01-10T13:56:41;26.20;;;23.50;;
35056;SDS011;21241;51.828;19.574;2024-01-10T13:59:09;21.90;;;19.70;;
35056;SDS011;21241;51.828;19.574;2024-01-10T14:01:37;23.10;;;19.80;;
35056;SDS011;21241;51.828;19.574;2024-01-10T14:04:05;27.50;;;22.60;;
35056;SDS011;21241;51.828;19.574;2024-01-10T14:06:33;28.60;;;25.00;;
35056;SDS011;21241;51.828;19.574;2024-01-10T14:09:01;32.30;;;28.20;;
35056;SDS011;21241;51.828;19.574;2024-01-10T14:11:29;31.50;;;28.30;;
35056;SDS011;21241;51.828;19.574;2024-01-10T14:13:57;32.00;;;28.50;;
35056;SDS011;21241;51.828;19.574;2024-01-10T14:16:25;32.70;;;27.00;;
35056;SDS011;21241;51.828;19.574;2024-01-10T14:18:55;37.40;;;32.80;;
35056;SDS011;21241;51.828;19.574;2024-01-10T14:21:23;40.90;;;36.50;;
35056;SDS011;21241;51.828;19.574;2024-01-10T14:23:51;41.10;;;36.70;;
35056;SDS011;21241;51.828;19.574;2024-01-10T14:26:19;34.70;;;31.00;;
35056;SDS011;21241;51.828;19.574;2024-01-10T14:28:47;31.50;;;28.10;;
35056;SDS011;21241;51.828;19.574;2024-01-10T14:31:15;32.40;;;28.00;;
35056;SDS011;21241;51.828;19.574;2024-01-10T14:33:56;33.00;;;29.50;;
35056;SDS011;21241;51.828;19.574;2024-01-10T14:36:25;31.40;;;28.10;;
35056;SDS011;21241;51.828;19.574;2024-01-10T14:38:53;32.00;;;28.30;;
35056;SDS011;21241;51.828;19.574;2024-01-10T14:41:22;32.40;;;29.00;;